sensor_id;sensor_type;location;lat;lon;timestamp;P1;durP1;ratioP1;P2;durP2;ratioP2
38455;SDS011;24237;50.106;20.014;2023-07-29T00:01:31;8.00;;;4.20;;
38455;SDS011;24237;50.106;20.014;2023-07-29T00:06:24;7.70;;;4.57;;
38455;SDS011;24237;50.106;20.014;2023-07-29T00:08:49;6.88;;;4.32;;
38455;SDS011;24237;50.106;20.014;2023-07-29T00:11:15;7.05;;;3.83;;
38455;SDS011;24237;50.106;20.014;2023-07-29T00:13:40;8.18;;;4.30;;
38455;SDS011;24237;50.106;20.014;2023-07-29T00:16:06;9.38;;;4.60;;
38455;SDS011;24237;50.106;20.014;2023-07-29T00:18:31;5.47;;;3.90;;
38455;SDS011;24237;50.106;20.014;2023-07-29T00:20:57;7.30;;;4.43;;
38455;SDS011;24237;50.106;20.014;2023-07-29T00:23:23;9.70;;;4.60;;
38455;SDS011;24237;50.106;20.014;2023-07-29T00:25:49;6.43;;;4.13;;
38455;SDS011;24237;50.106;20.014;2023-07-29T00:28:14;8.75;;;4.72;;
38455;SDS011;24237;50.106;20.014;2023-07-29T00:30:40;9.65;;;4.57;;
38455;SDS011;24237;50.106;20.014;2023-07-29T00:33:06;8.77;;;4.53;;
38455;SDS011;24237;50.106;20.014;2023-07-29T00:35:31;11.07;;;4.43;;
38455;SDS011;24237;50.106;20.014;2023-07-29T00:37:57;9.77;;;4.93;;
38455;SDS011;24237;50.106;20.014;2023-07-29T00:40:22;7.53;;;3.88;;
38455;SDS011;24237;50.106;20.014;2023-07-29T00:42:48;8.35;;;4.45;;
38455;SDS011;24237;50.106;20.014;2023-07-29T00:45:15;7.72;;;4.88;;
38455;SDS011;24237;50.106;20.014;2023-07-29T00:47:41;7.32;;;4.68;;
38455;SDS011;24237;50.106;20.014;2023-07-29T00:50:09;6.10;;;4.15;;
38455;SDS011;24237;50.106;20.014;2023-07-29T00:52:36;7.55;;;4.22;;
38455;SDS011;24237;50.106;20.014;2023-07-29T00:55:01;6.72;;;4.18;;
38455;SDS011;24237;50.106;20.014;2023-07-29T00:57:29;14.88;;;3.95;;
38455;SDS011;24237;50.106;20.014;2023-07-29T00:59:55;9.18;;;3.85;;
38455;SDS011;24237;50.106;20.014;2023-07-29T01:02:21;5.45;;;3.90;;
38455;SDS011;24237;50.106;20.014;2023-07-29T01:04:53;7.70;;;3.65;;
38455;SDS011;24237;50.106;20.014;2023-07-29T01:07:21;7.32;;;3.80;;
38455;SDS011;24237;50.106;20.014;2023-07-29T01:09:55;5.25;;;3.50;;
38455;SDS011;24237;50.106;20.014;2023-07-29T01:15:22;7.82;;;4.00;;
38455;SDS011;24237;50.106;20.014;2023-07-29T01:18:07;5.95;;;4.13;;
38455;SDS011;24237;50.106;20.014;2023-07-29T01:20:37;6.18;;;3.92;;
38455;SDS011;24237;50.106;20.014;2023-07-29T01:23:05;6.25;;;3.78;;
38455;SDS011;24237;50.106;20.014;2023-07-29T01:25:30;10.60;;;3.67;;
38455;SDS011;24237;50.106;20.014;2023-07-29T01:27:56;7.05;;;4.25;;
38455;SDS011;24237;50.106;20.014;2023-07-29T01:30:23;6.05;;;4.22;;
38455;SDS011;24237;50.106;20.014;2023-07-29T01:32:54;7.32;;;4.05;;
38455;SDS011;24237;50.106;20.014;2023-07-29T01:35:31;8.68;;;4.90;;
38455;SDS011;24237;50.106;20.014;2023-07-29T01:38:09;9.10;;;4.45;;
38455;SDS011;24237;50.106;20.014;2023-07-29T01:41:00;8.15;;;4.63;;
38455;SDS011;24237;50.106;20.014;2023-07-29T01:43:28;7.70;;;4.65;;
38455;SDS011;24237;50.106;20.014;2023-07-29T01:45:54;10.82;;;4.25;;
38455;SDS011;24237;50.106;20.014;2023-07-29T01:48:20;8.68;;;4.45;;
38455;SDS011;24237;50.106;20.014;2023-07-29T01:50:46;7.60;;;4.40;;
38455;SDS011;24237;50.106;20.014;2023-07-29T01:53:11;7.13;;;4.13;;
38455;SDS011;24237;50.106;20.014;2023-07-29T01:55:37;7.53;;;4.03;;
38455;SDS011;24237;50.106;20.014;2023-07-29T01:58:02;9.18;;;4.00;;
38455;SDS011;24237;50.106;20.014;2023-07-29T02:00:28;10.20;;;4.18;;
38455;SDS011;24237;50.106;20.014;2023-07-29T02:02:53;9.65;;;4.70;;
38455;SDS011;24237;50.106;20.014;2023-07-29T02:05:19;8.48;;;4.80;;
38455;SDS011;24237;50.106;20.014;2023-07-29T02:07:45;5.43;;;3.95;;
38455;SDS011;24237;50.106;20.014;2023-07-29T02:10:10;6.78;;;4.22;;
38455;SDS011;24237;50.106;20.014;2023-07-29T02:12:36;8.27;;;4.18;;
38455;SDS011;24237;50.106;20.014;2023-07-29T02:15:01;10.75;;;4.05;;
38455;SDS011;24237;50.106;20.014;2023-07-29T02:17:27;8.73;;;4.22;;
38455;SDS011;24237;50.106;20.014;2023-07-29T02:19:53;9.40;;;4.25;;
38455;SDS011;24237;50.106;20.014;2023-07-29T02:22:18;6.15;;;4.05;;
38455;SDS011;24237;50.106;20.014;2023-07-29T02:24:44;5.40;;;3.92;;
38455;SDS011;24237;50.106;20.014;2023-07-29T02:27:10;6.93;;;4.20;;
38455;SDS011;24237;50.106;20.014;2023-07-29T02:29:36;4.90;;;3.85;;
38455;SDS011;24237;50.106;20.014;2023-07-29T02:32:02;5.85;;;4.15;;
38455;SDS011;24237;50.106;20.014;2023-07-29T02:34:28;8.35;;;3.85;;
38455;SDS011;24237;50.106;20.014;2023-07-29T02:36:54;5.95;;;3.88;;
38455;SDS011;24237;50.106;20.014;2023-07-29T02:39:20;11.20;;;4.60;;
38455;SDS011;24237;50.106;20.014;2023-07-29T02:41:45;6.32;;;4.25;;
38455;SDS011;24237;50.106;20.014;2023-07-29T02:44:11;8.18;;;3.53;;
38455;SDS011;24237;50.106;20.014;2023-07-29T02:46:37;6.05;;;4.00;;
38455;SDS011;24237;50.106;20.014;2023-07-29T02:49:03;6.80;;;3.83;;
38455;SDS011;24237;50.106;20.014;2023-07-29T02:51:29;10.38;;;4.47;;
38455;SDS011;24237;50.106;20.014;2023-07-29T02:53:55;6.35;;;4.45;;
38455;SDS011;24237;50.106;20.014;2023-07-29T02:56:20;7.60;;;3.78;;
38455;SDS011;24237;50.106;20.014;2023-07-29T02:58:46;6.30;;;4.55;;
38455;SDS011;24237;50.106;20.014;2023-07-29T03:01:12;12.07;;;4.72;;
38455;SDS011;24237;50.106;20.014;2023-07-29T03:03:37;9.68;;;4.63;;
38455;SDS011;24237;50.106;20.014;2023-07-29T03:06:05;7.03;;;4.20;;
38455;SDS011;24237;50.106;20.014;2023-07-29T03:08:33;6.90;;;4.35;;
38455;SDS011;24237;50.106;20.014;2023-07-29T03:11:04;6.88;;;4.35;;
38455;SDS011;24237;50.106;20.014;2023-07-29T03:13:34;6.15;;;4.38;;
38455;SDS011;24237;50.106;20.014;2023-07-29T03:16:09;5.38;;;3.95;;
38455;SDS011;24237;50.106;20.014;2023-07-29T03:18:36;12.50;;;4.75;;
38455;SDS011;24237;50.106;20.014;2023-07-29T03:21:02;8.43;;;4.07;;
38455;SDS011;24237;50.106;20.014;2023-07-29T03:23:28;10.13;;;4.93;;
38455;SDS011;24237;50.106;20.014;2023-07-29T03:25:55;11.75;;;4.75;;
38455;SDS011;24237;50.106;20.014;2023-07-29T03:28:27;8.77;;;4.50;;
38455;SDS011;24237;50.106;20.014;2023-07-29T03:30:55;10.45;;;4.13;;
38455;SDS011;24237;50.106;20.014;2023-07-29T03:33:21;9.20;;;5.03;;
38455;SDS011;24237;50.106;20.014;2023-07-29T03:35:47;8.88;;;4.63;;
38455;SDS011;24237;50.106;20.014;2023-07-29T03:38:13;6.50;;;4.03;;
38455;SDS011;24237;50.106;20.014;2023-07-29T03:40:38;8.35;;;4.72;;
38455;SDS011;24237;50.106;20.014;2023-07-29T03:43:04;8.13;;;4.47;;
38455;SDS011;24237;50.106;20.014;2023-07-29T03:45:30;7.85;;;4.25;;
38455;SDS011;24237;50.106;20.014;2023-07-29T03:47:56;7.00;;;4.82;;
38455;SDS011;24237;50.106;20.014;2023-07-29T03:50:22;9.57;;;4.22;;
38455;SDS011;24237;50.106;20.014;2023-07-29T03:52:47;10.57;;;4.72;;
38455;SDS011;24237;50.106;20.014;2023-07-29T03:55:13;8.85;;;4.78;;
38455;SDS011;24237;50.106;20.014;2023-07-29T03:57:38;9.55;;;5.18;;
38455;SDS011;24237;50.106;20.014;2023-07-29T04:00:04;10.45;;;4.97;;
38455;SDS011;24237;50.106;20.014;2023-07-29T04:02:30;14.45;;;4.45;;
38455;SDS011;24237;50.106;20.014;2023-07-29T04:04:56;8.25;;;4.60;;
38455;SDS011;24237;50.106;20.014;2023-07-29T04:07:22;8.18;;;4.93;;
38455;SDS011;24237;50.106;20.014;2023-07-29T04:09:47;10.15;;;4.60;;
38455;SDS011;24237;50.106;20.014;2023-07-29T04:12:14;6.50;;;4.32;;
38455;SDS011;24237;50.106;20.014;2023-07-29T04:14:40;7.45;;;4.43;;
38455;SDS011;24237;50.106;20.014;2023-07-29T04:17:05;10.10;;;4.50;;
38455;SDS011;24237;50.106;20.014;2023-07-29T04:19:31;7.80;;;4.25;;
38455;SDS011;24237;50.106;20.014;2023-07-29T04:21:57;10.73;;;4.45;;
38455;SDS011;24237;50.106;20.014;2023-07-29T04:24:23;10.93;;;5.15;;
38455;SDS011;24237;50.106;20.014;2023-07-29T04:26:48;10.65;;;4.72;;
38455;SDS011;24237;50.106;20.014;2023-07-29T04:29:14;7.68;;;4.82;;
38455;SDS011;24237;50.106;20.014;2023-07-29T04:31:40;8.45;;;4.47;;
38455;SDS011;24237;50.106;20.014;2023-07-29T04:34:05;6.95;;;4.32;;
38455;SDS011;24237;50.106;20.014;2023-07-29T04:36:31;13.18;;;5.30;;
38455;SDS011;24237;50.106;20.014;2023-07-29T04:38:58;8.77;;;4.32;;
38455;SDS011;24237;50.106;20.014;2023-07-29T04:41:23;8.90;;;4.78;;
38455;SDS011;24237;50.106;20.014;2023-07-29T04:43:49;7.93;;;4.75;;
38455;SDS011;24237;50.106;20.014;2023-07-29T04:46:15;8.73;;;4.70;;
38455;SDS011;24237;50.106;20.014;2023-07-29T04:48:40;6.03;;;4.15;;
38455;SDS011;24237;50.106;20.014;2023-07-29T04:51:06;10.35;;;4.45;;
38455;SDS011;24237;50.106;20.014;2023-07-29T04:53:32;7.22;;;3.95;;
38455;SDS011;24237;50.106;20.014;2023-07-29T04:55:59;7.75;;;4.13;;
38455;SDS011;24237;50.106;20.014;2023-07-29T04:58:25;11.10;;;5.28;;
38455;SDS011;24237;50.106;20.014;2023-07-29T05:00:53;9.48;;;4.45;;
38455;SDS011;24237;50.106;20.014;2023-07-29T05:03:19;6.95;;;4.40;;
38455;SDS011;24237;50.106;20.014;2023-07-29T05:05:44;11.57;;;4.63;;
38455;SDS011;24237;50.106;20.014;2023-07-29T05:08:10;10.38;;;4.85;;
38455;SDS011;24237;50.106;20.014;2023-07-29T05:10:36;7.57;;;4.78;;
38455;SDS011;24237;50.106;20.014;2023-07-29T05:13:01;6.03;;;4.57;;
38455;SDS011;24237;50.106;20.014;2023-07-29T05:15:27;7.70;;;4.80;;
38455;SDS011;24237;50.106;20.014;2023-07-29T05:17:52;6.25;;;4.20;;
38455;SDS011;24237;50.106;20.014;2023-07-29T05:20:18;7.28;;;4.60;;
38455;SDS011;24237;50.106;20.014;2023-07-29T05:22:43;9.40;;;4.63;;
38455;SDS011;24237;50.106;20.014;2023-07-29T05:25:09;9.13;;;4.93;;
38455;SDS011;24237;50.106;20.014;2023-07-29T05:27:35;8.15;;;4.80;;
38455;SDS011;24237;50.106;20.014;2023-07-29T05:30:00;8.02;;;4.55;;
38455;SDS011;24237;50.106;20.014;2023-07-29T05:32:26;7.47;;;4.43;;
38455;SDS011;24237;50.106;20.014;2023-07-29T05:34:51;16.27;;;5.43;;
38455;SDS011;24237;50.106;20.014;2023-07-29T05:37:17;9.02;;;4.57;;
38455;SDS011;24237;50.106;20.014;2023-07-29T05:39:42;7.30;;;4.13;;
38455;SDS011;24237;50.106;20.014;2023-07-29T05:42:08;8.27;;;4.20;;
38455;SDS011;24237;50.106;20.014;2023-07-29T05:44:34;6.35;;;4.18;;
38455;SDS011;24237;50.106;20.014;2023-07-29T05:47:00;5.93;;;4.47;;
38455;SDS011;24237;50.106;20.014;2023-07-29T05:49:25;8.10;;;4.30;;
38455;SDS011;24237;50.106;20.014;2023-07-29T05:51:51;11.48;;;4.22;;
38455;SDS011;24237;50.106;20.014;2023-07-29T05:54:18;11.40;;;4.97;;
38455;SDS011;24237;50.106;20.014;2023-07-29T05:56:44;6.60;;;4.40;;
38455;SDS011;24237;50.106;20.014;2023-07-29T05:59:09;12.43;;;4.88;;
38455;SDS011;24237;50.106;20.014;2023-07-29T06:01:35;8.82;;;4.78;;
38455;SDS011;24237;50.106;20.014;2023-07-29T06:04:00;8.20;;;4.40;;
38455;SDS011;24237;50.106;20.014;2023-07-29T06:06:26;10.05;;;4.25;;
38455;SDS011;24237;50.106;20.014;2023-07-29T06:08:52;6.65;;;4.50;;
38455;SDS011;24237;50.106;20.014;2023-07-29T06:11:17;9.88;;;4.70;;
38455;SDS011;24237;50.106;20.014;2023-07-29T06:13:43;11.35;;;4.45;;
38455;SDS011;24237;50.106;20.014;2023-07-29T06:16:12;9.90;;;4.40;;
38455;SDS011;24237;50.106;20.014;2023-07-29T06:18:37;10.65;;;4.78;;
38455;SDS011;24237;50.106;20.014;2023-07-29T06:21:03;7.82;;;3.88;;
38455;SDS011;24237;50.106;20.014;2023-07-29T06:23:32;8.65;;;4.15;;
38455;SDS011;24237;50.106;20.014;2023-07-29T06:25:58;5.80;;;3.50;;
38455;SDS011;24237;50.106;20.014;2023-07-29T06:28:25;4.95;;;3.67;;
38455;SDS011;24237;50.106;20.014;2023-07-29T06:30:53;13.77;;;4.03;;
38455;SDS011;24237;50.106;20.014;2023-07-29T06:33:19;6.85;;;3.40;;
38455;SDS011;24237;50.106;20.014;2023-07-29T06:35:44;6.43;;;3.53;;
38455;SDS011;24237;50.106;20.014;2023-07-29T06:38:10;5.28;;;3.22;;
38455;SDS011;24237;50.106;20.014;2023-07-29T06:40:36;7.13;;;3.63;;
38455;SDS011;24237;50.106;20.014;2023-07-29T06:43:01;7.18;;;3.30;;
38455;SDS011;24237;50.106;20.014;2023-07-29T06:45:27;8.18;;;3.88;;
38455;SDS011;24237;50.106;20.014;2023-07-29T06:47:52;6.65;;;3.38;;
38455;SDS011;24237;50.106;20.014;2023-07-29T06:50:18;8.60;;;3.17;;
38455;SDS011;24237;50.106;20.014;2023-07-29T06:52:46;5.40;;;3.10;;
38455;SDS011;24237;50.106;20.014;2023-07-29T06:55:12;16.85;;;3.83;;
38455;SDS011;24237;50.106;20.014;2023-07-29T06:57:37;5.05;;;2.95;;
38455;SDS011;24237;50.106;20.014;2023-07-29T07:00:03;7.45;;;3.40;;
38455;SDS011;24237;50.106;20.014;2023-07-29T07:02:34;7.00;;;3.55;;
38455;SDS011;24237;50.106;20.014;2023-07-29T07:04:59;27.30;;;15.15;;
38455;SDS011;24237;50.106;20.014;2023-07-29T07:07:25;3.80;;;3.25;;
38455;SDS011;24237;50.106;20.014;2023-07-29T07:09:51;5.65;;;3.25;;
38455;SDS011;24237;50.106;20.014;2023-07-29T07:12:17;6.35;;;3.28;;
38455;SDS011;24237;50.106;20.014;2023-07-29T07:14:42;7.05;;;2.95;;
38455;SDS011;24237;50.106;20.014;2023-07-29T07:17:08;7.10;;;3.47;;
38455;SDS011;24237;50.106;20.014;2023-07-29T07:19:34;5.03;;;3.20;;
38455;SDS011;24237;50.106;20.014;2023-07-29T07:22:00;10.27;;;3.22;;
38455;SDS011;24237;50.106;20.014;2023-07-29T07:24:25;6.78;;;3.22;;
38455;SDS011;24237;50.106;20.014;2023-07-29T07:26:51;5.30;;;3.20;;
38455;SDS011;24237;50.106;20.014;2023-07-29T07:29:17;6.85;;;3.33;;
38455;SDS011;24237;50.106;20.014;2023-07-29T07:31:48;5.97;;;3.10;;
38455;SDS011;24237;50.106;20.014;2023-07-29T07:34:16;10.80;;;3.40;;
38455;SDS011;24237;50.106;20.014;2023-07-29T07:36:45;10.07;;;3.45;;
38455;SDS011;24237;50.106;20.014;2023-07-29T07:39:11;6.80;;;3.10;;
38455;SDS011;24237;50.106;20.014;2023-07-29T07:41:36;4.22;;;3.03;;
38455;SDS011;24237;50.106;20.014;2023-07-29T07:44:02;8.10;;;3.33;;
38455;SDS011;24237;50.106;20.014;2023-07-29T07:46:28;5.45;;;3.08;;
38455;SDS011;24237;50.106;20.014;2023-07-29T07:48:54;12.77;;;2.78;;
38455;SDS011;24237;50.106;20.014;2023-07-29T07:51:20;4.78;;;2.70;;
38455;SDS011;24237;50.106;20.014;2023-07-29T07:53:46;7.10;;;2.60;;
38455;SDS011;24237;50.106;20.014;2023-07-29T07:56:11;6.20;;;3.00;;
38455;SDS011;24237;50.106;20.014;2023-07-29T07:58:37;4.97;;;2.97;;
38455;SDS011;24237;50.106;20.014;2023-07-29T08:01:03;4.25;;;3.15;;
38455;SDS011;24237;50.106;20.014;2023-07-29T08:03:30;5.90;;;3.13;;
38455;SDS011;24237;50.106;20.014;2023-07-29T08:05:56;7.22;;;3.33;;
38455;SDS011;24237;50.106;20.014;2023-07-29T08:08:21;3.63;;;3.03;;
38455;SDS011;24237;50.106;20.014;2023-07-29T08:10:47;5.55;;;3.45;;
38455;SDS011;24237;50.106;20.014;2023-07-29T08:13:13;6.22;;;2.45;;
38455;SDS011;24237;50.106;20.014;2023-07-29T08:15:38;4.13;;;2.78;;
38455;SDS011;24237;50.106;20.014;2023-07-29T08:18:04;8.43;;;2.72;;
38455;SDS011;24237;50.106;20.014;2023-07-29T08:20:29;6.32;;;2.75;;
38455;SDS011;24237;50.106;20.014;2023-07-29T08:22:55;5.32;;;2.33;;
38455;SDS011;24237;50.106;20.014;2023-07-29T08:25:20;6.45;;;2.25;;
38455;SDS011;24237;50.106;20.014;2023-07-29T08:27:46;6.13;;;2.47;;
38455;SDS011;24237;50.106;20.014;2023-07-29T08:30:12;5.80;;;2.10;;
38455;SDS011;24237;50.106;20.014;2023-07-29T08:32:38;10.40;;;5.80;;
38455;SDS011;24237;50.106;20.014;2023-07-29T08:35:03;4.10;;;2.55;;
38455;SDS011;24237;50.106;20.014;2023-07-29T08:37:29;3.28;;;2.20;;
38455;SDS011;24237;50.106;20.014;2023-07-29T08:39:56;2.92;;;2.40;;
38455;SDS011;24237;50.106;20.014;2023-07-29T08:42:21;3.85;;;2.45;;
38455;SDS011;24237;50.106;20.014;2023-07-29T08:44:49;7.25;;;2.10;;
38455;SDS011;24237;50.106;20.014;2023-07-29T08:47:19;5.72;;;2.10;;
38455;SDS011;24237;50.106;20.014;2023-07-29T08:49:44;4.25;;;1.65;;
38455;SDS011;24237;50.106;20.014;2023-07-29T08:52:11;4.57;;;2.10;;
38455;SDS011;24237;50.106;20.014;2023-07-29T08:54:39;2.65;;;1.80;;
38455;SDS011;24237;50.106;20.014;2023-07-29T08:57:04;4.85;;;1.75;;
38455;SDS011;24237;50.106;20.014;2023-07-29T08:59:31;4.53;;;1.98;;
38455;SDS011;24237;50.106;20.014;2023-07-29T09:02:01;8.17;;;1.93;;
38455;SDS011;24237;50.106;20.014;2023-07-29T09:04:26;4.38;;;1.92;;
38455;SDS011;24237;50.106;20.014;2023-07-29T09:06:53;2.67;;;1.90;;
38455;SDS011;24237;50.106;20.014;2023-07-29T09:09:33;6.22;;;1.80;;
38455;SDS011;24237;50.106;20.014;2023-07-29T09:11:59;5.68;;;1.80;;
38455;SDS011;24237;50.106;20.014;2023-07-29T09:14:24;7.03;;;1.60;;
38455;SDS011;24237;50.106;20.014;2023-07-29T09:16:50;6.55;;;2.38;;
38455;SDS011;24237;50.106;20.014;2023-07-29T09:19:16;3.22;;;1.60;;
38455;SDS011;24237;50.106;20.014;2023-07-29T09:21:42;2.03;;;1.58;;
38455;SDS011;24237;50.106;20.014;2023-07-29T09:24:08;6.40;;;1.80;;
38455;SDS011;24237;50.106;20.014;2023-07-29T09:26:34;1.55;;;1.45;;
38455;SDS011;24237;50.106;20.014;2023-07-29T09:29:00;4.80;;;1.63;;
38455;SDS011;24237;50.106;20.014;2023-07-29T09:31:26;2.40;;;1.42;;
38455;SDS011;24237;50.106;20.014;2023-07-29T09:34:00;3.92;;;1.70;;
38455;SDS011;24237;50.106;20.014;2023-07-29T09:36:29;2.72;;;1.90;;
38455;SDS011;24237;50.106;20.014;2023-07-29T09:38:56;4.45;;;1.90;;
38455;SDS011;24237;50.106;20.014;2023-07-29T09:41:22;4.35;;;2.30;;
38455;SDS011;24237;50.106;20.014;2023-07-29T09:43:54;2.67;;;1.90;;
38455;SDS011;24237;50.106;20.014;2023-07-29T09:46:22;4.70;;;2.03;;
38455;SDS011;24237;50.106;20.014;2023-07-29T09:48:49;5.07;;;2.60;;
38455;SDS011;24237;50.106;20.014;2023-07-29T09:51:20;14.02;;;6.20;;
38455;SDS011;24237;50.106;20.014;2023-07-29T09:53:47;5.43;;;2.20;;
38455;SDS011;24237;50.106;20.014;2023-07-29T09:56:13;2.80;;;1.75;;
38455;SDS011;24237;50.106;20.014;2023-07-29T09:58:39;5.25;;;1.88;;
38455;SDS011;24237;50.106;20.014;2023-07-29T10:01:07;3.00;;;1.77;;
38455;SDS011;24237;50.106;20.014;2023-07-29T10:03:33;2.00;;;1.80;;
38455;SDS011;24237;50.106;20.014;2023-07-29T10:06:04;4.55;;;1.67;;
38455;SDS011;24237;50.106;20.014;2023-07-29T10:08:30;3.15;;;2.00;;
38455;SDS011;24237;50.106;20.014;2023-07-29T10:11:00;3.33;;;1.90;;
38455;SDS011;24237;50.106;20.014;2023-07-29T10:13:27;3.17;;;1.98;;
38455;SDS011;24237;50.106;20.014;2023-07-29T10:15:53;2.70;;;1.85;;
38455;SDS011;24237;50.106;20.014;2023-07-29T10:18:21;2.95;;;1.90;;
38455;SDS011;24237;50.106;20.014;2023-07-29T10:20:48;3.08;;;1.85;;
38455;SDS011;24237;50.106;20.014;2023-07-29T10:23:16;2.80;;;1.75;;
38455;SDS011;24237;50.106;20.014;2023-07-29T10:25:46;2.28;;;1.73;;
38455;SDS011;24237;50.106;20.014;2023-07-29T10:28:15;2.67;;;1.70;;
38455;SDS011;24237;50.106;20.014;2023-07-29T10:30:43;4.28;;;1.88;;
38455;SDS011;24237;50.106;20.014;2023-07-29T10:33:09;2.30;;;1.57;;
38455;SDS011;24237;50.106;20.014;2023-07-29T10:35:35;4.53;;;1.63;;
38455;SDS011;24237;50.106;20.014;2023-07-29T10:40:46;3.03;;;1.48;;
38455;SDS011;24237;50.106;20.014;2023-07-29T10:43:26;2.75;;;1.52;;
38455;SDS011;24237;50.106;20.014;2023-07-29T10:45:56;4.75;;;1.75;;
38455;SDS011;24237;50.106;20.014;2023-07-29T10:53:51;2.25;;;1.45;;
38455;SDS011;24237;50.106;20.014;2023-07-29T10:56:28;2.50;;;1.17;;
38455;SDS011;24237;50.106;20.014;2023-07-29T10:58:59;3.92;;;1.70;;
38455;SDS011;24237;50.106;20.014;2023-07-29T11:01:33;3.03;;;1.38;;
38455;SDS011;24237;50.106;20.014;2023-07-29T11:07:01;1.92;;;1.50;;
38455;SDS011;24237;50.106;20.014;2023-07-29T11:15:13;2.30;;;1.70;;
38455;SDS011;24237;50.106;20.014;2023-07-29T11:17:58;2.58;;;1.50;;
38455;SDS011;24237;50.106;20.014;2023-07-29T11:20:26;4.22;;;1.65;;
38455;SDS011;24237;50.106;20.014;2023-07-29T11:22:57;2.65;;;1.50;;
38455;SDS011;24237;50.106;20.014;2023-07-29T11:25:24;7.55;;;1.75;;
38455;SDS011;24237;50.106;20.014;2023-07-29T11:27:52;5.10;;;2.10;;
38455;SDS011;24237;50.106;20.014;2023-07-29T11:30:19;5.28;;;1.85;;
38455;SDS011;24237;50.106;20.014;2023-07-29T11:32:45;2.72;;;1.77;;
38455;SDS011;24237;50.106;20.014;2023-07-29T11:35:12;8.00;;;1.88;;
38455;SDS011;24237;50.106;20.014;2023-07-29T11:37:43;3.95;;;1.67;;
38455;SDS011;24237;50.106;20.014;2023-07-29T11:40:13;1.83;;;1.45;;
38455;SDS011;24237;50.106;20.014;2023-07-29T11:42:40;1.92;;;1.20;;
38455;SDS011;24237;50.106;20.014;2023-07-29T11:45:06;5.68;;;1.30;;
38455;SDS011;24237;50.106;20.014;2023-07-29T11:47:33;5.45;;;1.40;;
38455;SDS011;24237;50.106;20.014;2023-07-29T11:50:01;3.17;;;1.70;;
38455;SDS011;24237;50.106;20.014;2023-07-29T11:52:31;1.88;;;1.50;;
38455;SDS011;24237;50.106;20.014;2023-07-29T11:54:58;5.88;;;1.60;;
38455;SDS011;24237;50.106;20.014;2023-07-29T11:57:23;1.98;;;1.70;;
38455;SDS011;24237;50.106;20.014;2023-07-29T11:59:49;5.43;;;1.88;;
38455;SDS011;24237;50.106;20.014;2023-07-29T12:02:16;4.15;;;2.08;;
38455;SDS011;24237;50.106;20.014;2023-07-29T12:04:43;4.88;;;1.98;;
38455;SDS011;24237;50.106;20.014;2023-07-29T12:07:11;2.97;;;2.10;;
38455;SDS011;24237;50.106;20.014;2023-07-29T12:09:38;6.65;;;2.50;;
38455;SDS011;24237;50.106;20.014;2023-07-29T12:12:05;4.35;;;1.70;;
38455;SDS011;24237;50.106;20.014;2023-07-29T12:14:31;3.75;;;2.15;;
38455;SDS011;24237;50.106;20.014;2023-07-29T12:17:01;4.40;;;2.10;;
38455;SDS011;24237;50.106;20.014;2023-07-29T12:19:34;4.80;;;1.90;;
38455;SDS011;24237;50.106;20.014;2023-07-29T12:22:05;6.00;;;2.33;;
38455;SDS011;24237;50.106;20.014;2023-07-29T12:24:33;9.15;;;2.95;;
38455;SDS011;24237;50.106;20.014;2023-07-29T12:27:00;4.18;;;2.10;;
38455;SDS011;24237;50.106;20.014;2023-07-29T12:29:26;4.97;;;2.55;;
38455;SDS011;24237;50.106;20.014;2023-07-29T12:32:02;2.47;;;2.10;;
38455;SDS011;24237;50.106;20.014;2023-07-29T12:34:29;4.72;;;2.17;;
38455;SDS011;24237;50.106;20.014;2023-07-29T12:36:56;7.63;;;2.30;;
38455;SDS011;24237;50.106;20.014;2023-07-29T12:39:24;5.05;;;2.38;;
38455;SDS011;24237;50.106;20.014;2023-07-29T12:41:54;3.92;;;2.83;;
38455;SDS011;24237;50.106;20.014;2023-07-29T12:44:28;4.75;;;1.88;;
38455;SDS011;24237;50.106;20.014;2023-07-29T12:46:59;3.80;;;1.33;;
38455;SDS011;24237;50.106;20.014;2023-07-29T12:49:29;2.17;;;1.42;;
38455;SDS011;24237;50.106;20.014;2023-07-29T12:51:55;2.88;;;1.52;;
38455;SDS011;24237;50.106;20.014;2023-07-29T12:54:21;5.87;;;1.10;;
38455;SDS011;24237;50.106;20.014;2023-07-29T12:56:47;5.68;;;1.55;;
38455;SDS011;24237;50.106;20.014;2023-07-29T12:59:13;4.85;;;1.77;;
38455;SDS011;24237;50.106;20.014;2023-07-29T13:01:38;4.22;;;1.75;;
38455;SDS011;24237;50.106;20.014;2023-07-29T13:04:04;2.78;;;1.77;;
38455;SDS011;24237;50.106;20.014;2023-07-29T13:06:30;4.13;;;1.75;;
38455;SDS011;24237;50.106;20.014;2023-07-29T13:08:55;5.72;;;1.90;;
38455;SDS011;24237;50.106;20.014;2023-07-29T13:11:21;4.93;;;2.67;;
38455;SDS011;24237;50.106;20.014;2023-07-29T13:13:47;7.45;;;2.35;;
38455;SDS011;24237;50.106;20.014;2023-07-29T13:16:12;3.65;;;2.33;;
38455;SDS011;24237;50.106;20.014;2023-07-29T13:18:38;4.18;;;2.42;;
38455;SDS011;24237;50.106;20.014;2023-07-29T13:21:04;4.03;;;2.42;;
38455;SDS011;24237;50.106;20.014;2023-07-29T13:23:30;4.93;;;2.22;;
38455;SDS011;24237;50.106;20.014;2023-07-29T13:25:56;4.88;;;2.45;;
38455;SDS011;24237;50.106;20.014;2023-07-29T13:28:23;5.97;;;2.15;;
38455;SDS011;24237;50.106;20.014;2023-07-29T13:30:49;4.38;;;1.90;;
38455;SDS011;24237;50.106;20.014;2023-07-29T13:33:15;3.85;;;2.08;;
38455;SDS011;24237;50.106;20.014;2023-07-29T13:35:41;5.10;;;2.50;;
38455;SDS011;24237;50.106;20.014;2023-07-29T13:38:07;3.92;;;2.00;;
38455;SDS011;24237;50.106;20.014;2023-07-29T13:40:33;4.07;;;2.10;;
38455;SDS011;24237;50.106;20.014;2023-07-29T13:42:59;2.88;;;2.40;;
38455;SDS011;24237;50.106;20.014;2023-07-29T13:45:25;4.13;;;1.90;;
38455;SDS011;24237;50.106;20.014;2023-07-29T13:47:50;3.10;;;2.10;;
38455;SDS011;24237;50.106;20.014;2023-07-29T13:50:16;3.08;;;2.20;;
38455;SDS011;24237;50.106;20.014;2023-07-29T13:52:43;3.17;;;2.00;;
38455;SDS011;24237;50.106;20.014;2023-07-29T13:55:09;3.30;;;2.05;;
38455;SDS011;24237;50.106;20.014;2023-07-29T14:00:02;4.03;;;2.00;;
38455;SDS011;24237;50.106;20.014;2023-07-29T14:02:28;3.42;;;2.10;;
38455;SDS011;24237;50.106;20.014;2023-07-29T14:04:56;3.80;;;2.05;;
38455;SDS011;24237;50.106;20.014;2023-07-29T14:07:21;5.97;;;2.20;;
38455;SDS011;24237;50.106;20.014;2023-07-29T14:09:47;4.25;;;1.60;;
38455;SDS011;24237;50.106;20.014;2023-07-29T14:12:12;3.22;;;2.47;;
38455;SDS011;24237;50.106;20.014;2023-07-29T14:14:40;4.20;;;2.03;;
38455;SDS011;24237;50.106;20.014;2023-07-29T14:17:06;3.88;;;1.83;;
38455;SDS011;24237;50.106;20.014;2023-07-29T14:19:33;2.83;;;1.90;;
38455;SDS011;24237;50.106;20.014;2023-07-29T14:21:59;3.85;;;1.77;;
38455;SDS011;24237;50.106;20.014;2023-07-29T14:24:25;4.75;;;1.58;;
38455;SDS011;24237;50.106;20.014;2023-07-29T14:26:51;4.45;;;1.75;;
38455;SDS011;24237;50.106;20.014;2023-07-29T14:29:16;1.95;;;1.63;;
38455;SDS011;24237;50.106;20.014;2023-07-29T14:31:42;2.30;;;1.80;;
38455;SDS011;24237;50.106;20.014;2023-07-29T14:34:07;2.97;;;1.77;;
38455;SDS011;24237;50.106;20.014;2023-07-29T14:36:34;2.53;;;1.90;;
38455;SDS011;24237;50.106;20.014;2023-07-29T14:38:59;4.93;;;1.90;;
38455;SDS011;24237;50.106;20.014;2023-07-29T14:41:25;3.22;;;1.80;;
38455;SDS011;24237;50.106;20.014;2023-07-29T14:43:50;5.80;;;2.00;;
38455;SDS011;24237;50.106;20.014;2023-07-29T14:46:19;4.38;;;2.28;;
38455;SDS011;24237;50.106;20.014;2023-07-29T14:48:44;2.25;;;1.63;;
38455;SDS011;24237;50.106;20.014;2023-07-29T14:53:37;2.92;;;1.73;;
38455;SDS011;24237;50.106;20.014;2023-07-29T14:56:03;3.15;;;2.30;;
38455;SDS011;24237;50.106;20.014;2023-07-29T14:58:29;4.15;;;2.38;;